createdAt,value
2022-11-20T00:00:00.838Z,1.47
2022-11-20T00:00:49.077Z,1.39
2022-11-20T00:01:37.141Z,1.45
2022-11-20T00:02:26.318Z,1.54
2022-11-20T00:03:15.203Z,1.56
2022-11-20T00:04:03.429Z,1.53
2022-11-20T00:04:51.355Z,1.55
2022-11-20T00:05:38.406Z,1.61
2022-11-20T00:06:25.921Z,1.59
2022-11-20T00:07:12.943Z,1.59
2022-11-20T00:07:59.926Z,1.62
2022-11-20T00:08:47.562Z,1.63
2022-11-20T00:09:34.598Z,1.59
2022-11-20T00:10:21.705Z,1.59
2022-11-20T00:11:15.993Z,1.54
2022-11-20T00:12:03.770Z,1.51
2022-11-20T00:12:50.953Z,1.52
2022-11-20T00:13:38.007Z,1.46
2022-11-20T00:14:25.052Z,1.49
2022-11-20T00:15:12.055Z,1.52
2022-11-20T00:16:00.227Z,1.51
2022-11-20T00:16:47.587Z,1.49
2022-11-20T00:17:34.647Z,1.38
2022-11-20T00:18:21.605Z,1.36
2022-11-20T00:19:08.845Z,1.35
2022-11-20T00:19:55.861Z,1.23
2022-11-20T00:20:42.918Z,1.27
2022-11-20T00:21:30.555Z,1.29
2022-11-20T00:22:17.662Z,1.38
2022-11-20T00:23:04.677Z,1.45
2022-11-20T00:23:54.903Z,1.45
2022-11-20T00:24:43.276Z,1.46
2022-11-20T00:25:30.425Z,1.38
2022-11-20T00:26:19.358Z,1.36
2022-11-20T00:27:06.350Z,1.30
2022-11-20T00:27:53.368Z,1.38
2022-11-20T00:28:40.387Z,1.26
2022-11-20T00:29:27.317Z,1.31
2022-11-20T00:30:15.245Z,1.29
2022-11-20T00:31:10.926Z,1.31
2022-11-20T00:31:57.847Z,1.27
2022-11-20T00:32:44.867Z,1.23
2022-11-20T00:33:32.387Z,1.21
2022-11-20T00:34:19.417Z,1.26
2022-11-20T00:35:06.727Z,1.22
2022-11-20T00:35:53.777Z,1.22
2022-11-20T00:36:40.745Z,1.24
2022-11-20T00:37:28.000Z,1.25
2022-11-20T00:38:14.864Z,1.29
2022-11-20T00:39:01.843Z,1.29
2022-11-20T00:39:48.856Z,1.28
2022-11-20T00:40:35.825Z,1.31
2022-11-20T00:41:23.646Z,1.30
2022-11-20T00:42:10.707Z,1.35
2022-11-20T00:42:57.667Z,1.34
2022-11-20T00:43:44.879Z,1.29
2022-11-20T00:44:31.886Z,1.31
2022-11-20T00:45:18.882Z,1.31
2022-11-20T00:46:10.205Z,1.33
2022-11-20T00:46:57.287Z,1.28
2022-11-20T00:47:44.296Z,1.20
2022-11-20T00:48:31.494Z,1.22
2022-11-20T00:49:18.842Z,1.17
2022-11-20T00:50:06.359Z,1.14
2022-11-20T00:50:53.426Z,1.18
2022-11-20T00:51:40.367Z,1.27
2022-11-20T00:52:27.325Z,1.21
2022-11-20T00:53:14.408Z,1.24
2022-11-20T00:54:03.257Z,1.23
2022-11-20T00:54:50.225Z,1.28
2022-11-20T00:55:37.225Z,1.20
2022-11-20T00:56:24.207Z,1.18
2022-11-20T00:57:11.218Z,1.17
2022-11-20T00:57:58.224Z,1.15
2022-11-20T00:58:46.887Z,1.14
2022-11-20T00:59:33.845Z,1.15
2022-11-20T01:00:20.851Z,1.22
2022-11-20T01:01:09.966Z,1.18
2022-11-20T01:01:56.954Z,1.14
2022-11-20T01:02:43.978Z,1.12
2022-11-20T01:03:33.556Z,1.13
2022-11-20T01:04:20.497Z,1.10
2022-11-20T01:05:07.677Z,1.12
2022-11-20T01:05:54.668Z,1.12
2022-11-20T01:06:41.748Z,1.17
2022-11-20T01:07:28.683Z,1.17
2022-11-20T01:08:15.727Z,1.17
2022-11-20T01:09:07.177Z,1.19
2022-11-20T01:09:54.107Z,1.22
2022-11-20T01:10:41.801Z,1.23
2022-11-20T01:11:31.068Z,1.14
2022-11-20T01:12:18.027Z,1.14
2022-11-20T01:13:25.753Z,1.21
2022-11-20T01:14:17.608Z,1.20
2022-11-20T01:15:04.937Z,1.22
2022-11-20T01:15:51.975Z,1.18
2022-11-20T01:16:41.229Z,1.26
2022-11-20T01:17:28.138Z,1.21
2022-11-20T01:18:15.132Z,1.17
2022-11-20T01:19:04.654Z,1.20
2022-11-20T01:19:52.068Z,1.20
2022-11-20T01:20:39.056Z,1.30
2022-11-20T01:21:27.626Z,1.29
2022-11-20T01:22:14.574Z,1.32
2022-11-20T01:23:01.547Z,1.34
2022-11-20T01:23:49.451Z,1.38
2022-11-20T01:24:36.550Z,1.42
2022-11-20T01:25:23.503Z,1.46
2022-11-20T01:26:13.038Z,1.48
2022-11-20T01:27:00.105Z,1.53
2022-11-20T01:27:47.098Z,1.59
2022-11-20T01:28:34.597Z,1.60
2022-11-20T01:29:24.607Z,1.64
2022-11-20T01:30:12.406Z,1.63
2022-11-20T01:30:59.839Z,1.63
2022-11-20T01:31:46.967Z,1.60
2022-11-20T01:32:34.134Z,1.63
2022-11-20T01:33:21.095Z,1.65
2022-11-20T01:34:13.457Z,1.61
2022-11-20T01:35:00.496Z,1.60
2022-11-20T01:35:47.765Z,1.67
2022-11-20T01:36:37.153Z,1.72
2022-11-20T01:37:24.068Z,1.72
2022-11-20T01:38:11.076Z,1.65
2022-11-20T01:39:00.854Z,1.65
2022-11-20T01:39:47.827Z,1.62
2022-11-20T01:40:34.755Z,1.50
2022-11-20T01:41:41.638Z,1.53
2022-11-20T01:42:47.587Z,1.53
2022-11-20T01:43:34.825Z,1.53
2022-11-20T01:44:24.137Z,1.65
2022-11-20T01:45:48.168Z,1.62
2022-11-20T01:46:37.998Z,1.71
2022-11-20T01:47:31.148Z,1.57
2022-11-20T01:48:19.554Z,1.65
2022-11-20T01:49:09.158Z,1.68
2022-11-20T01:50:02.048Z,1.70
2022-11-20T01:50:49.536Z,1.72
2022-11-20T01:51:40.832Z,1.72
2022-11-20T01:52:41.410Z,1.62
2022-11-20T01:53:33.178Z,1.62
2022-11-20T01:54:25.226Z,1.72
2022-11-20T01:55:16.559Z,1.72
2022-11-20T01:56:04.850Z,1.65
2022-11-20T01:56:53.326Z,1.67
2022-11-20T01:57:41.096Z,1.60
2022-11-20T01:58:33.934Z,1.65
2022-11-20T01:59:21.423Z,1.67
2022-11-20T02:00:12.476Z,1.71
2022-11-20T02:01:00.648Z,1.76
2022-11-20T02:01:47.829Z,1.77
2022-11-20T02:02:35.683Z,1.75
2022-11-20T02:03:22.636Z,1.74
2022-11-20T02:04:09.930Z,1.76
2022-11-20T02:04:59.088Z,1.78
2022-11-20T02:06:14.673Z,1.74
2022-11-20T02:07:02.655Z,1.75
2022-11-20T02:07:49.689Z,1.74
2022-11-20T02:08:37.139Z,1.74
2022-11-20T02:09:24.259Z,1.77
2022-11-20T02:10:11.467Z,1.75
2022-11-20T02:10:58.597Z,1.76
2022-11-20T02:11:45.557Z,1.68
2022-11-20T02:12:50.997Z,1.75
2022-11-20T02:13:46.882Z,1.79
2022-11-20T02:14:33.827Z,1.83
2022-11-20T02:15:20.757Z,1.84
2022-11-20T02:16:11.746Z,1.88
2022-11-20T02:16:58.726Z,1.88
2022-11-20T02:17:45.597Z,1.86
2022-11-20T02:18:32.502Z,1.86
2022-11-20T02:19:32.638Z,1.81
2022-11-20T02:20:19.522Z,1.74
2022-11-20T02:21:41.998Z,1.88
2022-11-20T02:23:01.797Z,1.91
2022-11-20T02:24:00.746Z,1.88
2022-11-20T02:24:47.949Z,1.89
2022-11-20T02:25:35.178Z,1.90
2022-11-20T02:26:23.437Z,1.82
2022-11-20T02:27:12.814Z,1.78
2022-11-20T02:27:59.901Z,1.74
2022-11-20T02:28:46.757Z,1.62
2022-11-20T02:29:36.848Z,1.65
2022-11-20T02:30:23.801Z,1.70
2022-11-20T02:31:10.637Z,1.69
2022-11-20T02:31:59.188Z,1.69
2022-11-20T02:32:46.068Z,1.70
2022-11-20T02:33:33.032Z,1.72
2022-11-20T02:34:19.918Z,1.77
2022-11-20T02:35:20.328Z,1.75
2022-11-20T02:36:10.757Z,1.79
2022-11-20T02:36:58.138Z,1.72
2022-11-20T02:37:45.608Z,1.75
2022-11-20T02:38:32.872Z,1.80
2022-11-20T02:39:20.815Z,1.78
2022-11-20T02:40:08.709Z,1.79
2022-11-20T02:40:55.965Z,1.88
2022-11-20T02:41:42.937Z,1.90
2022-11-20T02:42:29.846Z,1.84
2022-11-20T02:43:17.401Z,1.91
2022-11-20T02:44:05.265Z,1.99
2022-11-20T02:44:52.076Z,1.97
2022-11-20T02:45:39.137Z,1.94
2022-11-20T02:46:25.992Z,1.95
2022-11-20T02:47:12.866Z,1.92
2022-11-20T02:47:59.825Z,1.92
2022-11-20T02:48:46.786Z,1.91
2022-11-20T02:49:34.206Z,1.91
2022-11-20T02:50:21.202Z,1.96
2022-11-20T02:51:08.208Z,1.99
2022-11-20T02:51:55.050Z,2.04
2022-11-20T02:52:42.485Z,2.09
2022-11-20T02:53:29.668Z,2.11
2022-11-20T02:54:16.461Z,2.14
2022-11-20T02:55:03.998Z,2.16
2022-11-20T02:55:50.867Z,2.04
2022-11-20T02:56:39.761Z,1.96
2022-11-20T02:57:26.666Z,1.87
2022-11-20T02:58:13.656Z,1.89
2022-11-20T02:59:00.497Z,1.92
2022-11-20T02:59:47.387Z,2.00
2022-11-20T03:00:34.894Z,2.06
2022-11-20T03:01:21.807Z,2.11
2022-11-20T03:02:08.667Z,2.06
2022-11-20T03:02:55.548Z,2.06
2022-11-20T03:03:42.428Z,2.00
2022-11-20T03:04:29.451Z,2.01
2022-11-20T03:05:16.457Z,2.01
2022-11-20T03:06:03.466Z,1.98
2022-11-20T03:06:50.332Z,1.97
2022-11-20T03:07:37.275Z,1.93
2022-11-20T03:08:24.106Z,2.02
2022-11-20T03:09:11.028Z,1.98
2022-11-20T03:09:57.907Z,1.93
2022-11-20T03:10:44.766Z,1.95
2022-11-20T03:11:31.649Z,1.95
2022-11-20T03:12:18.567Z,1.99
2022-11-20T03:13:05.893Z,1.98
2022-11-20T03:13:53.047Z,2.00
2022-11-20T03:14:41.967Z,2.06
2022-11-20T03:15:30.587Z,2.02
2022-11-20T03:16:21.578Z,1.97
2022-11-20T03:17:09.337Z,1.99
2022-11-20T03:17:57.367Z,2.11
2022-11-20T03:18:45.299Z,2.14
2022-11-20T03:19:33.750Z,2.14
2022-11-20T03:20:21.865Z,2.15
2022-11-20T03:21:11.607Z,2.22
2022-11-20T03:21:59.587Z,2.22
2022-11-20T03:22:46.758Z,2.14
2022-11-20T03:23:34.298Z,2.16
2022-11-20T03:24:21.177Z,2.24
2022-11-20T03:25:08.577Z,2.25
2022-11-20T03:25:55.508Z,2.17
2022-11-20T03:26:42.447Z,2.11
2022-11-20T03:27:33.837Z,2.05
2022-11-20T03:29:07.558Z,2.12
2022-11-20T03:29:54.489Z,2.03
2022-11-20T03:30:42.137Z,1.96
2022-11-20T03:31:37.037Z,2.03
2022-11-20T03:32:23.927Z,1.97
2022-11-20T03:33:11.018Z,1.94
2022-11-20T03:33:59.031Z,1.99
2022-11-20T03:34:45.849Z,2.06
2022-11-20T03:35:32.725Z,2.06
2022-11-20T03:36:20.926Z,2.05
2022-11-20T03:37:07.878Z,2.02
2022-11-20T03:37:54.646Z,1.95
2022-11-20T03:38:42.268Z,2.01
2022-11-20T03:39:29.114Z,2.02
2022-11-20T03:40:16.039Z,1.98
2022-11-20T03:41:05.398Z,1.94
2022-11-20T03:41:52.315Z,1.90
2022-11-20T03:42:48.341Z,1.87
2022-11-20T03:43:35.537Z,1.90
2022-11-20T03:44:22.738Z,1.84
2022-11-20T03:45:09.979Z,1.77
2022-11-20T03:45:57.019Z,1.80
2022-11-20T03:46:43.837Z,1.72
2022-11-20T03:47:30.688Z,1.74
2022-11-20T03:48:17.508Z,1.87
2022-11-20T03:49:04.823Z,1.81
2022-11-20T03:49:51.639Z,1.78
2022-11-20T03:50:38.426Z,1.76
2022-11-20T03:51:33.277Z,1.79
2022-11-20T03:52:20.186Z,1.71
2022-11-20T03:53:07.018Z,1.67
2022-11-20T03:53:55.587Z,1.70
2022-11-20T03:54:42.407Z,1.68
2022-11-20T03:55:29.266Z,1.77
2022-11-20T03:56:19.232Z,1.83
2022-11-20T03:57:06.187Z,1.80
2022-11-20T03:57:53.107Z,1.82
2022-11-20T03:58:40.777Z,1.79
2022-11-20T03:59:27.608Z,1.74
2022-11-20T04:00:15.088Z,1.77
2022-11-20T04:01:14.502Z,1.80
2022-11-20T04:02:01.432Z,1.77
2022-11-20T04:02:48.349Z,1.66
2022-11-20T04:03:36.256Z,1.72
2022-11-20T04:04:23.117Z,1.74
2022-11-20T04:05:09.963Z,1.77
2022-11-20T04:05:56.856Z,1.90
2022-11-20T04:06:43.666Z,1.87
2022-11-20T04:07:30.587Z,1.89
2022-11-20T04:08:17.458Z,1.87
2022-11-20T04:09:04.767Z,1.86
2022-11-20T04:09:51.646Z,1.84
2022-11-20T04:10:38.868Z,1.80
2022-11-20T04:11:28.548Z,1.87
2022-11-20T04:12:15.387Z,1.89
2022-11-20T04:13:02.457Z,1.83
2022-11-20T04:13:56.517Z,1.89
2022-11-20T04:14:43.395Z,1.81
2022-11-20T04:15:32.345Z,1.85
2022-11-20T04:16:23.737Z,1.81
2022-11-20T04:17:10.597Z,1.75
2022-11-20T04:17:57.478Z,1.80
2022-11-20T04:18:45.135Z,1.83
2022-11-20T04:19:32.039Z,1.71
2022-11-20T04:20:18.857Z,1.69
2022-11-20T04:21:06.418Z,1.72
2022-11-20T04:21:53.239Z,1.80
2022-11-20T04:22:40.086Z,1.90
2022-11-20T04:23:28.989Z,1.96
2022-11-20T04:24:16.019Z,2.06
2022-11-20T04:25:02.906Z,2.11
2022-11-20T04:25:49.775Z,2.00
2022-11-20T04:26:36.606Z,1.92
2022-11-20T04:27:23.457Z,1.90
2022-11-20T04:28:10.647Z,1.90
2022-11-20T04:28:58.777Z,1.85
2022-11-20T04:29:45.680Z,1.76
2022-11-20T04:30:32.588Z,1.82
2022-11-20T04:31:22.241Z,1.86
2022-11-20T04:32:09.057Z,1.98
2022-11-20T04:32:55.897Z,1.96
2022-11-20T04:33:43.159Z,1.90
2022-11-20T04:34:30.077Z,1.89
2022-11-20T04:35:16.978Z,1.83
2022-11-20T04:36:21.379Z,1.84
2022-11-20T04:37:08.237Z,2.00
2022-11-20T04:37:55.109Z,1.97
2022-11-20T04:38:42.059Z,2.01
2022-11-20T04:39:28.977Z,2.06
2022-11-20T04:40:15.917Z,2.11
2022-11-20T04:41:05.008Z,2.15
2022-11-20T04:42:11.797Z,2.10
2022-11-20T04:42:58.674Z,2.10
2022-11-20T04:43:50.055Z,2.12
2022-11-20T04:44:36.887Z,2.18
2022-11-20T04:45:24.456Z,2.17
2022-11-20T04:46:11.377Z,2.20
2022-11-20T04:46:58.197Z,2.16
2022-11-20T04:47:45.097Z,2.09
2022-11-20T04:48:32.066Z,2.05
2022-11-20T04:49:19.047Z,2.00
2022-11-20T04:50:06.637Z,2.01
2022-11-20T04:50:54.202Z,1.92
2022-11-20T04:51:41.050Z,1.89
2022-11-20T04:52:27.927Z,1.96
2022-11-20T04:53:14.958Z,1.95
2022-11-20T04:54:02.246Z,1.90
2022-11-20T04:54:49.108Z,1.93
2022-11-20T04:55:35.918Z,1.92
2022-11-20T04:56:23.037Z,1.92
2022-11-20T04:57:14.293Z,1.91
2022-11-20T04:58:01.496Z,1.92
2022-11-20T04:58:48.399Z,1.93
2022-11-20T04:59:35.227Z,1.97
2022-11-20T05:00:22.386Z,1.89
2022-11-20T05:01:14.951Z,1.86
2022-11-20T05:02:01.887Z,1.88
2022-11-20T05:02:48.804Z,1.99
2022-11-20T05:03:41.008Z,2.07
2022-11-20T05:04:29.187Z,2.11
2022-11-20T05:05:16.127Z,2.09
2022-11-20T05:06:05.406Z,2.06
2022-11-20T05:06:52.325Z,2.12
2022-11-20T05:07:39.279Z,2.11
2022-11-20T05:08:26.127Z,2.13
2022-11-20T05:09:15.888Z,2.02
2022-11-20T05:10:02.759Z,1.99
2022-11-20T05:10:49.619Z,1.95
2022-11-20T05:11:36.523Z,1.92
2022-11-20T05:12:23.407Z,1.90
2022-11-20T05:13:10.219Z,1.92
2022-11-20T05:13:59.957Z,2.00
2022-11-20T05:14:46.836Z,2.02
2022-11-20T05:15:33.856Z,1.98
2022-11-20T05:16:24.990Z,1.94
2022-11-20T05:17:13.292Z,1.97
2022-11-20T05:18:00.166Z,1.96
2022-11-20T05:18:47.409Z,1.98
2022-11-20T05:19:34.367Z,1.96
2022-11-20T05:20:21.747Z,1.88
2022-11-20T05:21:09.626Z,1.81
2022-11-20T05:21:56.498Z,1.76
2022-11-20T05:22:43.859Z,1.77
2022-11-20T05:23:32.310Z,1.76
2022-11-20T05:24:19.208Z,1.75
2022-11-20T05:25:06.557Z,1.80
2022-11-20T05:25:58.954Z,1.79
2022-11-20T05:26:46.359Z,1.89
2022-11-20T05:27:33.269Z,1.86
2022-11-20T05:28:20.168Z,1.86
2022-11-20T05:29:06.980Z,1.78
2022-11-20T05:29:53.837Z,1.74
2022-11-20T05:30:40.747Z,1.77
2022-11-20T05:31:28.514Z,1.75
2022-11-20T05:32:15.446Z,1.76
2022-11-20T05:33:02.257Z,1.77
2022-11-20T05:33:49.077Z,1.74
2022-11-20T05:34:35.937Z,1.74
2022-11-20T05:35:22.847Z,1.75
2022-11-20T05:36:10.493Z,1.76
2022-11-20T05:36:57.427Z,1.86
2022-11-20T05:37:44.346Z,1.90
2022-11-20T05:38:31.352Z,1.97
2022-11-20T05:39:18.353Z,2.04
2022-11-20T05:40:05.937Z,2.00
2022-11-20T05:40:52.846Z,1.94
2022-11-20T05:41:39.686Z,2.00
2022-11-20T05:42:32.623Z,2.09
2022-11-20T05:43:19.518Z,2.11
2022-11-20T05:44:06.420Z,2.10
2022-11-20T05:44:53.239Z,2.09
2022-11-20T05:45:40.137Z,2.18
2022-11-20T05:46:28.973Z,2.16
2022-11-20T05:47:16.417Z,2.10
2022-11-20T05:48:03.472Z,2.14
2022-11-20T05:48:50.368Z,2.10
2022-11-20T05:49:37.257Z,2.07
2022-11-20T05:50:24.068Z,1.99
2022-11-20T05:51:13.497Z,2.04
2022-11-20T05:52:00.347Z,2.03
2022-11-20T05:52:47.250Z,2.03
2022-11-20T05:53:35.417Z,1.94
2022-11-20T05:54:22.249Z,2.00
2022-11-20T05:55:09.558Z,2.01
2022-11-20T05:56:05.087Z,2.02
2022-11-20T05:56:51.971Z,2.07
2022-11-20T05:57:38.847Z,2.10
2022-11-20T05:58:25.897Z,2.11
2022-11-20T05:59:12.777Z,2.12
2022-11-20T05:59:59.578Z,2.10
2022-11-20T06:00:46.438Z,2.15
2022-11-20T06:01:33.407Z,2.14
2022-11-20T06:02:20.283Z,2.13
2022-11-20T06:03:07.177Z,2.14
2022-11-20T06:03:55.126Z,2.23
2022-11-20T06:04:42.039Z,2.31
2022-11-20T06:05:28.915Z,2.30
2022-11-20T06:06:16.832Z,2.32
2022-11-20T06:07:03.887Z,2.35
2022-11-20T06:07:50.806Z,2.34
2022-11-20T06:08:37.640Z,2.37
2022-11-20T06:09:24.456Z,2.37
2022-11-20T06:10:11.777Z,2.39
2022-11-20T06:10:58.946Z,2.39
2022-11-20T06:11:45.778Z,2.39
2022-11-20T06:12:34.111Z,2.34
2022-11-20T06:13:21.019Z,2.31
2022-11-20T06:14:07.837Z,2.29
2022-11-20T06:14:54.679Z,2.37
2022-11-20T06:15:41.499Z,2.41
2022-11-20T06:16:28.468Z,2.39
2022-11-20T06:17:15.296Z,2.22
2022-11-20T06:18:02.198Z,2.19
2022-11-20T06:18:49.246Z,2.23
2022-11-20T06:19:36.087Z,2.33
2022-11-20T06:20:23.448Z,2.25
2022-11-20T06:21:18.888Z,2.22
2022-11-20T06:22:05.747Z,2.22
2022-11-20T06:22:52.608Z,2.31
2022-11-20T06:23:39.767Z,2.33
2022-11-20T06:24:27.347Z,2.20
2022-11-20T06:25:15.448Z,2.15
2022-11-20T06:26:14.673Z,2.17
2022-11-20T06:27:01.818Z,2.17
2022-11-20T06:27:48.696Z,2.21
2022-11-20T06:28:36.720Z,2.22
2022-11-20T06:29:23.968Z,2.31
2022-11-20T06:30:11.677Z,2.34
2022-11-20T06:31:00.316Z,2.36
2022-11-20T06:31:47.717Z,2.37
2022-11-20T06:32:35.317Z,2.43
2022-11-20T06:33:22.517Z,2.50
2022-11-20T06:34:10.406Z,2.50
2022-11-20T06:34:57.497Z,2.42
2022-11-20T06:35:46.237Z,2.45
2022-11-20T06:36:33.626Z,2.41
2022-11-20T06:37:20.596Z,2.38
2022-11-20T06:38:07.596Z,2.38
2022-11-20T06:38:54.808Z,2.31
2022-11-20T06:39:41.718Z,2.39
2022-11-20T06:40:28.556Z,2.48
2022-11-20T06:41:17.668Z,2.49
2022-11-20T06:42:04.520Z,2.50
2022-11-20T06:42:51.330Z,2.48
2022-11-20T06:43:38.287Z,2.52
2022-11-20T06:44:25.188Z,2.59
2022-11-20T06:45:12.128Z,2.65
2022-11-20T06:46:00.161Z,2.60
2022-11-20T06:46:47.067Z,2.56
2022-11-20T06:47:34.500Z,2.64
2022-11-20T06:48:21.812Z,2.65
2022-11-20T06:49:08.698Z,2.71
2022-11-20T06:49:55.617Z,2.71
2022-11-20T06:50:42.498Z,2.62
2022-11-20T06:51:29.397Z,2.58
2022-11-20T06:52:16.237Z,2.63
2022-11-20T06:53:04.306Z,2.60
2022-11-20T06:53:51.139Z,2.54
2022-11-20T06:54:37.948Z,2.53
2022-11-20T06:55:24.828Z,2.52
2022-11-20T06:56:11.738Z,2.48
2022-11-20T06:56:58.648Z,2.59
2022-11-20T06:57:45.568Z,2.63
2022-11-20T06:58:33.768Z,2.57
2022-11-20T06:59:20.993Z,2.43
2022-11-20T07:00:08.578Z,2.49
2022-11-20T07:00:59.717Z,2.54
2022-11-20T07:01:46.572Z,2.60
2022-11-20T07:02:33.419Z,2.48
2022-11-20T07:03:20.364Z,2.48
2022-11-20T07:04:07.326Z,2.49
2022-11-20T07:04:54.253Z,2.53
2022-11-20T07:05:41.428Z,2.57
2022-11-20T07:06:28.527Z,2.58
2022-11-20T07:07:15.474Z,2.59
2022-11-20T07:08:02.907Z,2.53
2022-11-20T07:08:52.637Z,2.48
2022-11-20T07:09:39.588Z,2.51
2022-11-20T07:10:27.288Z,2.51
2022-11-20T07:11:14.290Z,2.52
2022-11-20T07:12:01.589Z,2.55
2022-11-20T07:12:54.728Z,2.52
2022-11-20T07:13:41.637Z,2.44
2022-11-20T07:14:28.516Z,2.46
2022-11-20T07:15:15.347Z,2.47
2022-11-20T07:16:08.025Z,2.35
2022-11-20T07:16:54.918Z,2.37
2022-11-20T07:17:41.738Z,2.45
2022-11-20T07:18:28.577Z,2.43
2022-11-20T07:19:15.568Z,2.38
2022-11-20T07:20:02.387Z,2.41
2022-11-20T07:20:49.199Z,2.45
2022-11-20T07:21:35.986Z,2.48
2022-11-20T07:22:22.918Z,2.47
2022-11-20T07:23:09.826Z,2.41
2022-11-20T07:23:56.767Z,2.42
2022-11-20T07:24:46.132Z,2.52
2022-11-20T07:25:33.318Z,2.60
2022-11-20T07:26:20.758Z,2.68
2022-11-20T07:27:07.627Z,2.64
2022-11-20T07:27:58.238Z,2.58
2022-11-20T07:28:45.447Z,2.63
2022-11-20T07:29:32.406Z,2.62
2022-11-20T07:30:19.636Z,2.45
2022-11-20T07:31:08.580Z,2.54
2022-11-20T07:31:56.825Z,2.51
2022-11-20T07:32:44.817Z,2.63
2022-11-20T07:33:32.398Z,2.76
2022-11-20T07:34:20.787Z,2.80
2022-11-20T07:35:08.229Z,2.83
2022-11-20T07:35:55.137Z,2.89
2022-11-20T07:36:43.317Z,2.89
2022-11-20T07:37:30.904Z,2.86
2022-11-20T07:38:19.565Z,2.84
2022-11-20T07:39:06.897Z,2.82
2022-11-20T07:39:53.717Z,2.76
2022-11-20T07:40:41.169Z,2.75
2022-11-20T07:41:29.047Z,2.74
2022-11-20T07:42:15.887Z,2.82
2022-11-20T07:43:02.717Z,2.79
2022-11-20T07:43:49.518Z,2.75
2022-11-20T07:44:37.477Z,2.72
2022-11-20T07:45:26.141Z,2.65
2022-11-20T07:46:12.958Z,2.70
2022-11-20T07:47:00.507Z,2.74
2022-11-20T07:47:50.668Z,2.74
2022-11-20T07:48:38.417Z,2.76
2022-11-20T07:49:25.498Z,2.72
2022-11-20T07:50:12.951Z,2.74
2022-11-20T07:51:00.004Z,2.72
2022-11-20T07:51:50.270Z,2.77
2022-11-20T07:52:38.956Z,2.71
2022-11-20T07:53:26.081Z,2.73
2022-11-20T07:54:12.905Z,2.76
2022-11-20T07:54:59.756Z,2.83
2022-11-20T07:55:46.646Z,2.89
2022-11-20T07:56:33.477Z,2.92
2022-11-20T07:57:24.292Z,2.92
2022-11-20T07:58:15.060Z,2.89
2022-11-20T07:59:01.928Z,2.91
2022-11-20T07:59:48.828Z,2.94
2022-11-20T08:00:35.812Z,2.91
2022-11-20T08:01:22.803Z,2.90
2022-11-20T08:02:12.397Z,2.89
2022-11-20T08:02:59.926Z,2.91
2022-11-20T08:03:46.803Z,2.99
2022-11-20T08:04:34.398Z,2.92
2022-11-20T08:05:21.530Z,2.95
2022-11-20T08:06:08.874Z,2.91
2022-11-20T08:06:55.787Z,2.89
2022-11-20T08:07:44.611Z,2.79
2022-11-20T08:08:33.796Z,2.74
2022-11-20T08:09:21.004Z,2.74
2022-11-20T08:10:09.827Z,2.77
2022-11-20T08:11:19.827Z,2.73
2022-11-20T08:12:25.386Z,2.69
2022-11-20T08:13:30.977Z,2.76
2022-11-20T08:14:17.846Z,2.85
2022-11-20T08:15:11.326Z,3.11
2022-11-20T08:15:59.948Z,3.21
2022-11-20T08:16:48.748Z,3.30
2022-11-20T08:17:35.636Z,3.30
2022-11-20T08:18:31.738Z,3.24
2022-11-20T08:19:20.371Z,3.25
2022-11-20T08:20:07.881Z,3.40
2022-11-20T08:20:54.732Z,3.36
2022-11-20T08:21:42.125Z,3.34
2022-11-20T08:22:29.418Z,3.42
2022-11-20T08:23:18.098Z,3.45
2022-11-20T08:24:05.971Z,3.50
2022-11-20T08:24:53.768Z,3.51
2022-11-20T08:25:41.441Z,3.59
2022-11-20T08:26:30.084Z,3.61
2022-11-20T08:27:17.790Z,3.59
2022-11-20T08:28:19.859Z,3.57
2022-11-20T08:29:09.106Z,3.43
2022-11-20T08:29:57.228Z,3.45
2022-11-20T08:30:45.390Z,3.47
2022-11-20T08:31:35.079Z,3.47
2022-11-20T08:32:22.795Z,3.42
2022-11-20T08:33:11.828Z,3.45
2022-11-20T08:34:00.117Z,3.44
2022-11-20T08:34:48.486Z,3.52
2022-11-20T08:35:38.198Z,3.57
2022-11-20T08:36:26.778Z,3.58
2022-11-20T08:37:15.097Z,3.54
2022-11-20T08:38:05.059Z,3.53
2022-11-20T08:38:58.489Z,3.45
2022-11-20T08:39:48.142Z,3.51
2022-11-20T08:40:37.509Z,3.50
2022-11-20T08:41:28.691Z,3.48
2022-11-20T08:42:16.552Z,3.57
2022-11-20T08:43:03.648Z,3.48
2022-11-20T08:43:51.500Z,3.52
2022-11-20T08:44:38.326Z,3.54
2022-11-20T08:45:28.446Z,3.50
2022-11-20T08:46:19.537Z,3.47
2022-11-20T08:47:11.168Z,3.39
2022-11-20T08:48:02.127Z,3.42
2022-11-20T08:48:49.218Z,3.50
2022-11-20T08:49:36.299Z,3.55
2022-11-20T08:50:23.209Z,3.59
2022-11-20T08:51:10.707Z,3.59
2022-11-20T08:51:58.360Z,3.55
2022-11-20T08:52:45.358Z,3.52
2022-11-20T08:53:32.481Z,3.56
2022-11-20T08:54:21.159Z,3.47
2022-11-20T08:55:08.937Z,3.41
2022-11-20T08:55:56.007Z,3.43
2022-11-20T08:56:42.857Z,3.45
2022-11-20T08:57:29.790Z,3.44
2022-11-20T08:58:16.895Z,3.36
2022-11-20T09:00:12.510Z,3.44
2022-11-20T09:00:59.812Z,3.48
2022-11-20T09:01:47.099Z,3.34
2022-11-20T09:02:34.078Z,3.37
2022-11-20T09:03:21.068Z,3.32
2022-11-20T09:04:08.576Z,3.38
2022-11-20T09:04:55.604Z,3.42
2022-11-20T09:05:43.918Z,3.46
2022-11-20T09:06:30.948Z,3.57
2022-11-20T09:07:17.919Z,3.67
2022-11-20T09:08:05.331Z,3.67
2022-11-20T09:08:55.629Z,3.55
2022-11-20T09:09:42.523Z,3.55
2022-11-20T09:10:29.565Z,3.54
2022-11-20T09:11:16.412Z,3.56
2022-11-20T09:12:03.797Z,3.62
2022-11-20T09:12:53.921Z,3.72
2022-11-20T09:13:40.838Z,3.65
2022-11-20T09:14:30.522Z,3.69
2022-11-20T09:15:17.436Z,3.76
2022-11-20T09:16:07.886Z,3.76
2022-11-20T09:16:54.875Z,3.83
2022-11-20T09:17:41.727Z,3.83
2022-11-20T09:18:29.708Z,3.83
2022-11-20T09:20:24.026Z,3.82
2022-11-20T09:21:15.504Z,3.72
2022-11-20T09:22:02.579Z,3.84
2022-11-20T09:22:49.476Z,3.83
2022-11-20T09:23:37.041Z,3.75
2022-11-20T09:24:24.517Z,3.65
2022-11-20T09:25:11.528Z,3.80
2022-11-20T09:26:03.178Z,3.79
2022-11-20T09:26:50.067Z,3.79
2022-11-20T09:27:37.278Z,3.85
2022-11-20T09:28:24.237Z,3.84
2022-11-20T09:29:11.960Z,3.93
2022-11-20T09:29:58.940Z,3.91
2022-11-20T09:30:46.115Z,3.90
2022-11-20T09:31:32.937Z,3.94
2022-11-20T09:32:19.829Z,4.00
2022-11-20T09:33:08.068Z,3.98
2022-11-20T09:33:55.023Z,3.92
2022-11-20T09:34:41.890Z,3.96
2022-11-20T09:35:29.088Z,4.02
2022-11-20T09:36:17.147Z,4.06
2022-11-20T09:37:10.499Z,4.16
2022-11-20T09:37:57.466Z,4.30
2022-11-20T09:38:44.495Z,4.35
2022-11-20T09:39:31.568Z,4.40
2022-11-20T09:40:23.228Z,4.55
2022-11-20T09:41:35.159Z,4.52
2022-11-20T09:42:41.980Z,4.58
2022-11-20T09:44:03.137Z,4.55
2022-11-20T09:44:56.407Z,4.57
2022-11-20T09:45:56.717Z,4.58
2022-11-20T09:47:11.927Z,4.56
2022-11-20T09:48:18.177Z,4.73
2022-11-20T09:49:09.006Z,4.77
2022-11-20T09:50:27.248Z,4.85
2022-11-20T09:51:27.479Z,4.88
2022-11-20T09:52:31.668Z,4.88
2022-11-20T09:53:30.877Z,4.94
2022-11-20T09:54:24.322Z,4.95
2022-11-20T09:55:13.478Z,5.12
2022-11-20T09:56:02.688Z,5.03
2022-11-20T09:57:00.617Z,5.09
2022-11-20T09:57:48.657Z,5.08
2022-11-20T09:58:47.077Z,5.05
2022-11-20T09:59:44.237Z,4.99
2022-11-20T10:00:32.771Z,4.90
2022-11-20T10:01:21.979Z,4.98
2022-11-20T10:02:30.877Z,5.03
2022-11-20T10:03:43.107Z,5.16
2022-11-20T10:04:36.716Z,5.20
2022-11-20T10:05:28.947Z,5.36
2022-11-20T10:06:19.238Z,5.37
2022-11-20T10:07:32.964Z,5.39
2022-11-20T10:08:22.810Z,5.54
2022-11-20T10:09:12.773Z,5.68
2022-11-20T10:09:59.996Z,5.66
2022-11-20T10:10:53.735Z,5.68
2022-11-20T10:11:58.108Z,5.70
2022-11-20T10:13:14.261Z,5.64
2022-11-20T10:14:06.737Z,5.72
2022-11-20T10:14:53.507Z,5.63
2022-11-20T10:15:59.277Z,5.62
2022-11-20T10:17:07.119Z,5.74
2022-11-20T10:18:03.500Z,5.81
2022-11-20T10:19:03.387Z,5.76
2022-11-20T10:20:08.218Z,5.80
2022-11-20T10:21:16.682Z,5.89
2022-11-20T10:22:11.216Z,5.62
2022-11-20T10:22:58.232Z,5.72
2022-11-20T10:23:59.918Z,5.81
2022-11-20T10:24:59.797Z,5.82
2022-11-20T10:26:07.602Z,6.02
2022-11-20T10:27:18.279Z,6.09
2022-11-20T10:28:23.739Z,6.00
2022-11-20T10:29:29.637Z,6.00
2022-11-20T10:30:19.366Z,5.98
2022-11-20T10:31:11.656Z,6.15
2022-11-20T10:32:08.491Z,6.03
2022-11-20T10:33:07.449Z,6.19
2022-11-20T10:34:11.622Z,6.32
2022-11-20T10:35:25.459Z,6.41
2022-11-20T10:36:29.756Z,6.23
2022-11-20T10:37:30.685Z,6.23
2022-11-20T10:38:27.257Z,6.22
2022-11-20T10:39:23.231Z,6.34
2022-11-20T10:40:41.242Z,6.30
2022-11-20T10:41:35.883Z,6.50
2022-11-20T10:42:45.308Z,6.52
2022-11-20T10:43:35.887Z,6.54
2022-11-20T10:44:43.617Z,6.55
2022-11-20T10:45:54.484Z,6.63
2022-11-20T10:46:45.320Z,6.52
2022-11-20T10:47:32.729Z,6.54
2022-11-20T10:48:25.379Z,6.55
2022-11-20T10:49:20.659Z,6.58
2022-11-20T10:50:13.801Z,6.72
2022-11-20T10:51:39.137Z,6.80
2022-11-20T10:52:28.597Z,6.75
2022-11-20T10:53:35.646Z,6.72
2022-11-20T10:54:32.905Z,6.83
2022-11-20T10:55:30.108Z,6.70
2022-11-20T10:56:28.956Z,6.77
2022-11-20T10:57:28.448Z,6.80
2022-11-20T10:58:36.185Z,6.84
2022-11-20T10:59:44.808Z,6.92
2022-11-20T11:00:36.458Z,6.80
2022-11-20T11:01:24.589Z,6.68